Pelham, New York
Current Conditions -  °F | °C
As of 10:51 AM on Tuesday 21 Oct 2014 (Local Time) from KLGA Reporting Station
Broken Clouds Broken Clouds  
Wind Chill: 18°   Ceiling: 25000
Heat Index: 18°   Visibility: 10mi
Dew Point:   Wind: 7mph
Humidity: 54%   Direction: 60°ENE
Pressure: 29.88"   Gusts: NA
Location:  40.91°N, 73.81°W
Report Text: KLGA 211451Z 06006KT 10SM SCT060 BKN250 18/09 A2988 RMK AO2 SLP119 T01830089 58004
Loading
Personal Weather Stations






























Interactive Weather Map
Tropical Storm Tracking
New forecast layout! Learn more

10-Day Weather Forecast

Advertisements
Track Severe Weather on mobile